Westhope, North Dakota
Current Conditions -  °F | °C
As of 2:18 PM on Thursday 18 Dec 2014 (Local Time) from KMIB Reporting Station
Overcast Overcast  
Wind Chill: 12°   Ceiling: 1000
Heat Index: 21°   Visibility: 10mi
Dew Point: 21°   Wind: 8mph
Humidity: 100%   Direction: 220°SW
Pressure: 30"   Gusts: NA
Location:  48.91°N, 101.02°W
Report Text: KMIB 182018Z AUTO 22007KT 10SM OVC010 M06/M06 A3000 RMK AO2
Loading
Personal Weather Stations






























Interactive Weather Map New forecast layout! Learn more

10-Day Weather Forecast

Advertisements
Track Severe Weather on mobile